Time;durP1;ratioP1;P1;durP2;ratioP2;P2;SDS_P1;SDS_P2;PMS_P1;PMS_P2;Temp;Humidity;BMP_temperature;BMP_pressure;BME280_temperature;BME280_humidity;BME280_pressure;Samples;Min_cycle;Max_cycle;Signal;HPM_P1;HPM_P2
2023/03/15 00:01:14;;;;;;;4.60;2.70;;;;;;;;;;4929754;29;20040;-78
2023/03/15 00:03:41;;;;;;;3.63;2.40;;;;;;;;;;4953951;28;20051;-78
2023/03/15 00:06:12;;;;;;;4.20;2.28;;;;;;;;;;4955983;29;20051;-78
2023/03/15 00:08:40;;;;;;;7.13;3.78;;;;;;;;;;4942076;29;20060;-78
2023/03/15 00:11:10;;;;;;;7.80;4.40;;;;;;;;;;4923910;29;20048;-78
2023/03/15 00:13:37;;;;;;;9.68;3.90;;;;;;;;;;4929760;29;20518;-78
2023/03/15 00:16:05;;;;;;;4.60;3.78;;;;;;;;;;4918487;29;20044;-78
2023/03/15 00:18:34;;;;;;;7.18;3.97;;;;;;;;;;4934376;29;20070;-78
2023/03/15 00:21:04;;;;;;;7.20;4.82;;;;;;;;;;4946341;23;20413;-78
2023/03/15 00:23:31;;;;;;;7.40;4.82;;;;;;;;;;4953605;28;20051;-78
2023/03/15 00:26:08;;;;;;;4.60;4.15;;;;;;;;;;4955992;28;20409;-78
2023/03/15 00:28:37;;;;;;;7.32;4.00;;;;;;;;;;4956305;28;20062;-79
2023/03/15 00:31:09;;;;;;;5.60;3.63;;;;;;;;;;4953286;29;20043;-78
2023/03/15 00:33:40;;;;;;;6.82;4.03;;;;;;;;;;4953638;29;20054;-78
2023/03/15 00:36:08;;;;;;;4.70;3.70;;;;;;;;;;4937194;29;20043;-78
2023/03/15 00:38:37;;;;;;;8.43;5.18;;;;;;;;;;4937036;29;20391;-78
2023/03/15 00:41:06;;;;;;;6.40;4.18;;;;;;;;;;4936802;29;20043;-78
2023/03/15 00:43:40;;;;;;;6.90;3.97;;;;;;;;;;4934230;29;20051;-78
2023/03/15 00:46:10;;;;;;;8.25;3.83;;;;;;;;;;4937943;29;20140;-78
2023/03/15 00:48:39;;;;;;;10.20;4.75;;;;;;;;;;4949673;29;20062;-78
2023/03/15 00:51:11;;;;;;;5.63;3.75;;;;;;;;;;4954404;29;20035;-78
2023/03/15 00:53:46;;;;;;;5.97;3.83;;;;;;;;;;4937654;29;20062;-78
2023/03/15 00:56:16;;;;;;;8.57;4.60;;;;;;;;;;4936665;29;20047;-78
2023/03/15 00:58:44;;;;;;;10.20;5.57;;;;;;;;;;4953522;29;20394;-78
2023/03/15 01:01:13;;;;;;;13.38;5.10;;;;;;;;;;4936253;29;20039;-78
2023/03/15 01:03:40;;;;;;;6.40;5.05;;;;;;;;;;4939994;29;20055;-78
2023/03/15 01:06:09;;;;;;;5.70;4.10;;;;;;;;;;4920222;29;20063;-78
2023/03/15 01:08:41;;;;;;;;;;;;;;;;;;4937345;29;20051;-78
2023/03/15 01:11:12;;;;;;;8.82;4.22;;;;;;;;;;4921357;29;19929;-78
2023/03/15 01:13:41;;;;;;;7.65;4.13;;;;;;;;;;4937000;29;20058;-78
2023/03/15 01:16:10;;;;;;;6.03;4.75;;;;;;;;;;4932845;29;20062;-78
2023/03/15 01:18:37;;;;;;;5.45;3.03;;;;;;;;;;4936185;29;20055;-78
2023/03/15 01:21:06;;;;;;;4.97;4.38;;;;;;;;;;4920423;29;20497;-78
2023/03/15 01:23:33;;;;;;;6.00;4.28;;;;;;;;;;4933481;29;20055;-78
2023/03/15 01:26:00;;;;;;;11.13;4.53;;;;;;;;;;4929131;29;20070;-78
2023/03/15 01:28:28;;;;;;;4.10;3.70;;;;;;;;;;4935335;29;20520;-78
2023/03/15 01:30:58;;;;;;;8.90;6.18;;;;;;;;;;4927955;29;20497;-78
2023/03/15 01:33:25;;;;;;;8.18;4.50;;;;;;;;;;4936657;29;20552;-78
2023/03/15 01:35:59;;;;;;;4.78;4.30;;;;;;;;;;4936253;29;20070;-78
2023/03/15 01:38:30;;;;;;;13.30;5.20;;;;;;;;;;4936242;29;20043;-78
2023/03/15 01:40:58;;;;;;;6.25;4.03;;;;;;;;;;4919272;29;20066;-78
2023/03/15 01:43:28;;;;;;;4.57;3.88;;;;;;;;;;4936749;29;20048;-78
2023/03/15 01:46:17;;;;;;;4.57;3.45;;;;;;;;;;4935643;29;20066;-78
2023/03/15 01:48:48;;;;;;;5.78;3.58;;;;;;;;;;4935827;29;20179;-78
2023/03/15 01:51:24;;;;;;;5.45;3.38;;;;;;;;;;4937274;29;20081;-78
2023/03/15 01:53:54;;;;;;;3.22;2.47;;;;;;;;;;4952592;29;20066;-77
2023/03/15 01:56:22;;;;;;;8.75;3.75;;;;;;;;;;4919246;29;20065;-77
2023/03/15 01:58:53;;;;;;;4.45;1.90;;;;;;;;;;4952401;28;20382;-78
2023/03/15 02:01:22;;;;;;;4.47;3.20;;;;;;;;;;4930661;29;20049;-78
2023/03/15 02:03:53;;;;;;;3.60;2.30;;;;;;;;;;4920418;29;20058;-78
2023/03/15 02:06:23;;;;;;;3.10;2.20;;;;;;;;;;4936249;29;20043;-78
2023/03/15 02:08:57;;;;;;;5.20;2.47;;;;;;;;;;4932421;29;20055;-78
2023/03/15 02:11:29;;;;;;;6.80;1.88;;;;;;;;;;4920748;29;20047;-78
2023/03/15 02:13:59;;;;;;;3.08;1.52;;;;;;;;;;4936526;29;20429;-78
2023/03/15 02:16:29;;;;;;;3.03;2.08;;;;;;;;;;4934732;29;20558;-78
2023/03/15 02:19:03;;;;;;;4.57;2.97;;;;;;;;;;4936295;29;20055;-78
2023/03/15 02:21:39;;;;;;;3.20;1.90;;;;;;;;;;4944269;29;20043;-78
2023/03/15 02:24:09;;;;;;;;;;;;;;;;;;4922925;29;20059;-78
2023/03/15 02:26:40;;;;;;;4.60;2.65;;;;;;;;;;4935319;28;20403;-78
2023/03/15 02:29:09;;;;;;;3.38;2.70;;;;;;;;;;4952261;29;20062;-78
2023/03/15 02:31:36;;;;;;;2.25;2.05;;;;;;;;;;4935525;28;20051;-78
2023/03/15 02:34:05;;;;;;;7.13;2.22;;;;;;;;;;4930524;29;20055;-77
2023/03/15 02:36:34;;;;;;;4.57;2.05;;;;;;;;;;4934729;29;20054;-78
2023/03/15 02:39:02;;;;;;;3.88;2.35;;;;;;;;;;4939091;29;20493;-78
2023/03/15 02:41:32;;;;;;;3.17;2.88;;;;;;;;;;4955916;29;20051;-78
2023/03/15 02:44:06;;;;;;;5.32;2.15;;;;;;;;;;4956123;29;20494;-78
2023/03/15 02:46:35;;;;;;;3.42;2.17;;;;;;;;;;4937010;29;20043;-78
2023/03/15 02:49:08;;;;;;;4.32;2.65;;;;;;;;;;4935418;29;20050;-78
2023/03/15 02:51:38;;;;;;;6.45;1.98;;;;;;;;;;4940290;29;20055;-78
2023/03/15 02:54:05;;;;;;;7.75;2.03;;;;;;;;;;4939885;29;20051;-78
2023/03/15 02:56:34;;;;;;;5.35;2.25;;;;;;;;;;4922913;29;20039;-78
2023/03/15 02:59:04;;;;;;;3.90;2.15;;;;;;;;;;4923504;29;20047;-78
2023/03/15 03:01:38;;;;;;;3.60;2.10;;;;;;;;;;4936370;29;20430;-78
2023/03/15 03:04:05;;;;;;;5.63;2.35;;;;;;;;;;4936197;29;20533;-77
2023/03/15 03:06:33;;;;;;;8.40;3.08;;;;;;;;;;4945766;29;20055;-78
2023/03/15 03:09:03;;;;;;;12.00;2.67;;;;;;;;;;4939238;29;20054;-77
2023/03/15 03:11:30;;;;;;;6.15;2.63;;;;;;;;;;4939003;29;20050;-78
2023/03/15 03:13:58;;;;;;;8.60;3.15;;;;;;;;;;4939349;29;20051;-78
2023/03/15 03:16:27;;;;;;;3.97;2.55;;;;;;;;;;4934898;29;20540;-78
2023/03/15 03:19:02;;;;;;;4.35;2.88;;;;;;;;;;4939208;29;20058;-78
2023/03/15 03:21:31;;;;;;;4.13;2.55;;;;;;;;;;4922568;29;20066;-77
2023/03/15 03:23:58;;;;;;;3.42;3.10;;;;;;;;;;4920001;29;20051;-78
2023/03/15 03:26:31;;;;;;;6.18;3.03;;;;;;;;;;4920127;29;20059;-78
2023/03/15 03:28:59;;;;;;;4.43;3.17;;;;;;;;;;4955356;29;20413;-78
2023/03/15 03:31:32;;;;;;;5.07;3.40;;;;;;;;;;4938762;29;20051;-78
2023/03/15 03:34:01;;;;;;;6.03;3.58;;;;;;;;;;4914104;29;20059;-78
2023/03/15 03:36:32;;;;;;;3.63;2.88;;;;;;;;;;4935579;29;20055;-77
2023/03/15 03:39:00;;;;;;;5.50;2.95;;;;;;;;;;4953571;29;20493;-77
2023/03/15 03:41:30;;;;;;;6.88;3.28;;;;;;;;;;4914239;29;20047;-78
2023/03/15 03:44:00;;;;;;;5.88;3.28;;;;;;;;;;4937878;29;20062;-77
2023/03/15 03:46:28;;;;;;;8.65;2.67;;;;;;;;;;4936830;29;20055;-78
2023/03/15 03:48:57;;;;;;;3.90;2.92;;;;;;;;;;4936515;29;20047;-78
2023/03/15 03:51:26;;;;;;;6.63;2.78;;;;;;;;;;4938029;29;20062;-77
2023/03/15 03:53:58;;;;;;;3.72;2.63;;;;;;;;;;4929184;29;20062;-77
2023/03/15 03:56:26;;;;;;;6.53;3.20;;;;;;;;;;4936521;29;20730;-77
2023/03/15 03:58:53;;;;;;;4.88;3.33;;;;;;;;;;4946189;29;20047;-78
2023/03/15 04:01:28;;;;;;;4.25;3.45;;;;;;;;;;4920858;29;20058;-77
2023/03/15 04:03:56;;;;;;;4.82;2.70;;;;;;;;;;4922913;29;20048;-77
2023/03/15 04:06:27;;;;;;;5.05;3.70;;;;;;;;;;4935466;29;20054;-77
2023/03/15 04:08:55;;;;;;;6.03;3.15;;;;;;;;;;4938278;29;20151;-77
2023/03/15 04:11:31;;;;;;;7.15;3.67;;;;;;;;;;4921999;29;20544;-78
2023/03/15 04:14:06;;;;;;;8.43;2.95;;;;;;;;;;4938418;29;20409;-78
2023/03/15 04:16:36;;;;;;;4.35;3.33;;;;;;;;;;4929904;29;20047;-78
2023/03/15 04:19:11;;;;;;;4.68;2.95;;;;;;;;;;4930901;29;20051;-77
2023/03/15 04:21:45;;;;;;;4.70;3.40;;;;;;;;;;4935345;29;20148;-77
2023/03/15 04:24:39;;;;;;;4.65;3.28;;;;;;;;;;4937751;29;20055;-77
2023/03/15 04:27:13;;;;;;;5.00;3.65;;;;;;;;;;4941643;29;20035;-77
2023/03/15 04:30:04;;;;;;;5.60;4.35;;;;;;;;;;4944600;29;20113;-78
2023/03/15 04:32:57;;;;;;;4.65;3.38;;;;;;;;;;4937072;28;20055;-77
2023/03/15 04:35:45;;;;;;;10.38;4.32;;;;;;;;;;4929334;28;20055;-77
2023/03/15 04:38:34;;;;;;;4.78;3.10;;;;;;;;;;4954796;29;20040;-77
2023/03/15 04:41:17;;;;;;;8.85;5.40;;;;;;;;;;4950009;29;20051;-78
2023/03/15 04:44:08;;;;;;;6.18;4.43;;;;;;;;;;4935125;29;20438;-77
2023/03/15 04:46:54;;;;;;;5.55;4.38;;;;;;;;;;4934599;29;20055;-78
2023/03/15 04:49:41;;;;;;;5.00;3.90;;;;;;;;;;4921541;29;20048;-78
2023/03/15 04:52:27;;;;;;;6.80;4.43;;;;;;;;;;4954544;29;20051;-78
2023/03/15 04:55:25;;;;;;;9.00;4.05;;;;;;;;;;4901531;29;20052;-78
2023/03/15 04:58:11;;;;;;;6.15;4.00;;;;;;;;;;4953721;29;20413;-78
2023/03/15 05:00:48;;;;;;;6.97;3.65;;;;;;;;;;4936890;29;20050;-77
2023/03/15 05:03:34;;;;;;;9.93;4.38;;;;;;;;;;4950682;29;20054;-77
2023/03/15 05:06:20;;;;;;;5.10;4.00;;;;;;;;;;4949414;29;20051;-77
2023/03/15 05:09:02;;;;;;;5.82;4.20;;;;;;;;;;4936405;29;20070;-77
2023/03/15 05:11:49;;;;;;;6.63;3.95;;;;;;;;;;4936206;29;20055;-77
2023/03/15 05:14:35;;;;;;;4.97;3.67;;;;;;;;;;4952310;29;20039;-77
2023/03/15 05:17:23;;;;;;;8.95;4.93;;;;;;;;;;4952540;29;20047;-77
2023/03/15 05:20:00;;;;;;;7.63;4.60;;;;;;;;;;4936359;29;20051;-77
2023/03/15 05:22:42;;;;;;;4.38;3.55;;;;;;;;;;4934005;29;20058;-77
2023/03/15 05:25:51;;;;;;;5.22;4.60;;;;;;;;;;4949345;29;20067;-77
2023/03/15 05:28:31;;;;;;;4.82;3.97;;;;;;;;;;4935679;29;20589;-77
2023/03/15 05:31:17;;;;;;;7.53;4.97;;;;;;;;;;4938077;29;20059;-77
2023/03/15 05:34:11;;;;;;;6.68;4.70;;;;;;;;;;4927696;29;20395;-77
2023/03/15 05:37:11;;;;;;;8.52;4.70;;;;;;;;;;4899732;29;21535;-78
2023/03/15 05:39:58;;;;;;;7.30;4.40;;;;;;;;;;4922879;29;20047;-78
2023/03/15 05:42:58;;;;;;;6.93;5.53;;;;;;;;;;4942058;29;20051;-78
2023/03/15 05:45:26;;;;;;;5.22;4.63;;;;;;;;;;4936589;29;20517;-78
2023/03/15 05:48:26;;;;;;;6.00;5.45;;;;;;;;;;4952112;29;20051;-77
2023/03/15 05:51:03;;;;;;;9.07;5.72;;;;;;;;;;4928031;29;20062;-78
2023/03/15 05:53:43;;;;;;;7.82;5.20;;;;;;;;;;4935272;29;20050;-77
2023/03/15 05:56:30;;;;;;;6.13;4.70;;;;;;;;;;4930406;29;20059;-77
2023/03/15 05:59:16;;;;;;;8.82;5.25;;;;;;;;;;4952917;29;20043;-78
2023/03/15 06:02:03;;;;;;;7.03;3.65;;;;;;;;;;4953107;29;20460;-78
2023/03/15 06:04:39;;;;;;;6.78;4.93;;;;;;;;;;4925949;29;20422;-77
2023/03/15 06:07:07;;;;;;;5.28;4.03;;;;;;;;;;4916879;29;20410;-77
2023/03/15 06:09:35;;;;;;;7.07;4.78;;;;;;;;;;4932358;29;20055;-77
2023/03/15 06:12:02;;;;;;;7.90;5.40;;;;;;;;;;4919864;29;20055;-78
2023/03/15 06:14:34;;;;;;;7.00;5.05;;;;;;;;;;4938393;29;20509;-77
2023/03/15 06:17:10;;;;;;;6.78;5.20;;;;;;;;;;4931086;29;20039;-78
2023/03/15 06:19:41;;;;;;;7.10;5.15;;;;;;;;;;4924121;29;20062;-78
2023/03/15 06:22:08;;;;;;;12.68;5.93;;;;;;;;;;4968403;23;20051;-78
2023/03/15 06:24:50;;;;;;;7.97;5.70;;;;;;;;;;4955780;29;20540;-78
2023/03/15 06:27:20;;;;;;;9.40;5.65;;;;;;;;;;4937853;29;20059;-78
2023/03/15 06:29:58;;;;;;;;;;;;;;;;;;;;;
2023/03/15 06:32:30;;;;;;;5.63;5.03;;;;;;;;;;4934390;29;20051;-78
2023/03/15 06:34:59;;;;;;;9.35;6.43;;;;;;;;;;4954314;28;20066;-77
2023/03/15 06:37:27;;;;;;;8.00;4.97;;;;;;;;;;4954175;28;20047;-78
2023/03/15 06:39:54;;;;;;;6.38;3.60;;;;;;;;;;4930659;29;20051;-78
2023/03/15 06:42:21;;;;;;;8.50;5.20;;;;;;;;;;4951467;29;20050;-78
2023/03/15 06:44:53;;;;;;;9.18;4.63;;;;;;;;;;4935441;28;20055;-78
2023/03/15 06:47:22;;;;;;;5.00;3.72;;;;;;;;;;4946099;29;20056;-78
2023/03/15 06:49:53;;;;;;;14.07;5.30;;;;;;;;;;4971432;28;20050;-78
2023/03/15 06:52:20;;;;;;;4.75;4.00;;;;;;;;;;4955879;28;20521;-78
2023/03/15 06:54:47;;;;;;;6.45;3.90;;;;;;;;;;4955369;28;20062;-78
2023/03/15 06:57:15;;;;;;;7.45;5.28;;;;;;;;;;4936636;28;20066;-78
2023/03/15 06:59:42;;;;;;;11.15;5.72;;;;;;;;;;4954249;29;20055;-78
2023/03/15 07:02:14;;;;;;;5.43;4.00;;;;;;;;;;4952620;28;20058;-78
2023/03/15 07:04:44;;;;;;;6.97;4.60;;;;;;;;;;4946971;29;20505;-78
2023/03/15 07:07:15;;;;;;;10.50;5.07;;;;;;;;;;4961994;28;20044;-78
2023/03/15 07:09:43;;;;;;;9.95;4.93;;;;;;;;;;4951628;28;20509;-78
2023/03/15 07:12:13;;;;;;;7.82;4.57;;;;;;;;;;4935978;28;20055;-78
2023/03/15 07:14:40;;;;;;;4.40;3.78;;;;;;;;;;4948300;28;20074;-78
2023/03/15 07:17:07;;;;;;;6.40;4.00;;;;;;;;;;4957150;28;20047;-78
2023/03/15 07:19:37;;;;;;;8.65;5.07;;;;;;;;;;4947148;29;20054;-78
2023/03/15 07:22:04;;;;;;;11.57;4.05;;;;;;;;;;4915489;28;1074470;-78
2023/03/15 07:24:36;;;;;;;10.15;4.32;;;;;;;;;;4952886;28;20049;-78
2023/03/15 07:27:03;;;;;;;7.07;3.78;;;;;;;;;;4946569;28;20058;-78
2023/03/15 07:29:30;;;;;;;4.32;3.13;;;;;;;;;;4952050;28;20058;-78
2023/03/15 07:32:00;;;;;;;5.20;3.00;;;;;;;;;;4949655;29;20047;-78
2023/03/15 07:34:27;;;;;;;8.45;3.88;;;;;;;;;;4930526;28;20044;-78
2023/03/15 07:36:54;;;;;;;10.25;3.45;;;;;;;;;;4950936;28;20047;-78
2023/03/15 07:39:24;;;;;;;7.60;4.35;;;;;;;;;;4955887;28;20053;-78
2023/03/15 07:41:53;;;;;;;7.07;3.92;;;;;;;;;;4953750;28;20059;-78
2023/03/15 07:44:25;;;;;;;6.65;3.97;;;;;;;;;;4953621;29;20101;-78
2023/03/15 07:46:53;;;;;;;9.15;4.05;;;;;;;;;;4953664;28;20055;-78
2023/03/15 07:49:23;;;;;;;5.82;3.35;;;;;;;;;;4928515;28;20059;-78
2023/03/15 07:51:52;;;;;;;9.63;3.92;;;;;;;;;;4950495;29;20047;-79
2023/03/15 07:54:20;;;;;;;5.38;3.53;;;;;;;;;;4933583;28;20425;-78
2023/03/15 07:56:49;;;;;;;3.83;3.30;;;;;;;;;;4944292;28;20043;-78
2023/03/15 07:59:18;;;;;;;10.05;4.80;;;;;;;;;;4953754;28;20059;-78
2023/03/15 08:01:45;;;;;;;4.00;3.47;;;;;;;;;;4952548;29;20054;-78
2023/03/15 08:04:14;;;;;;;7.63;4.45;;;;;;;;;;4954033;29;20128;-78
2023/03/15 08:06:44;;;;;;;4.28;3.35;;;;;;;;;;4962640;28;20390;-78
2023/03/15 08:09:16;;;;;;;8.93;4.68;;;;;;;;;;4958426;28;20382;-78
2023/03/15 08:11:45;;;;;;;7.18;4.38;;;;;;;;;;4951263;29;20051;-78
2023/03/15 08:14:17;;;;;;;4.70;3.60;;;;;;;;;;4950036;28;20043;-78
2023/03/15 08:16:51;;;;;;;5.90;3.15;;;;;;;;;;4947191;29;20066;-78
2023/03/15 08:19:23;;;;;;;5.93;3.33;;;;;;;;;;4967309;28;20043;-78
2023/03/15 08:21:52;;;;;;;4.93;3.63;;;;;;;;;;4954051;28;20051;-78
2023/03/15 08:24:23;;;;;;;5.97;3.17;;;;;;;;;;4948208;29;20411;-79
2023/03/15 08:26:53;;;;;;;8.13;3.55;;;;;;;;;;4954926;28;20051;-78
2023/03/15 08:29:21;;;;;;;6.38;3.22;;;;;;;;;;4952812;28;20047;-79
2023/03/15 08:31:48;;;;;;;13.70;4.22;;;;;;;;;;4955031;28;20054;-79
2023/03/15 08:34:17;;;;;;;8.55;6.10;;;;;;;;;;4947137;29;20402;-80
2023/03/15 08:36:47;;;;;;;6.03;3.88;;;;;;;;;;4952346;28;20059;-77
2023/03/15 08:39:16;;;;;;;9.52;4.93;;;;;;;;;;4952450;29;20105;-78
2023/03/15 08:41:44;;;;;;;4.57;3.67;;;;;;;;;;4953362;28;20066;-78
2023/03/15 08:44:11;;;;;;;7.60;3.03;;;;;;;;;;4950467;28;20055;-78
2023/03/15 08:46:38;;;;;;;8.63;3.30;;;;;;;;;;4950502;28;20051;-78
2023/03/15 08:49:05;;;;;;;6.07;2.95;;;;;;;;;;4940110;29;20438;-78
2023/03/15 08:51:34;;;;;;;6.95;4.35;;;;;;;;;;4951756;28;20400;-77
2023/03/15 08:54:03;;;;;;;6.90;3.13;;;;;;;;;;4950807;29;20059;-78
2023/03/15 08:56:31;;;;;;;7.75;3.80;;;;;;;;;;4952294;29;20059;-78
2023/03/15 08:58:58;;;;;;;4.00;3.05;;;;;;;;;;4967925;28;20039;-78
2023/03/15 09:01:29;;;;;;;4.57;3.00;;;;;;;;;;4951191;29;20059;-78
2023/03/15 09:03:59;;;;;;;5.80;3.83;;;;;;;;;;4946211;28;20050;-77
2023/03/15 09:06:26;;;;;;;6.45;3.40;;;;;;;;;;4950175;29;20066;-78
2023/03/15 09:08:54;;;;;;;4.32;2.85;;;;;;;;;;4950671;28;20047;-78
2023/03/15 09:11:22;;;;;;;6.13;3.58;;;;;;;;;;4952154;28;20051;-78
2023/03/15 09:13:49;;;;;;;3.42;2.85;;;;;;;;;;4951211;28;20065;-78
2023/03/15 09:16:16;;;;;;;5.38;3.22;;;;;;;;;;4949921;28;20047;-78
2023/03/15 09:18:44;;;;;;;10.00;4.13;;;;;;;;;;4951021;29;20039;-78
2023/03/15 09:21:11;;;;;;;11.23;3.22;;;;;;;;;;4951173;28;20058;-77
2023/03/15 09:23:41;;;;;;;5.78;3.60;;;;;;;;;;4950935;28;20068;-78
2023/03/15 09:26:11;;;;;;;10.30;4.45;;;;;;;;;;4928398;29;20047;-78
2023/03/15 09:28:39;;;;;;;6.10;2.78;;;;;;;;;;4951640;28;20055;-78
2023/03/15 09:31:07;;;;;;;4.88;3.13;;;;;;;;;;4952485;28;20050;-78
2023/03/15 09:33:34;;;;;;;3.55;2.63;;;;;;;;;;4947312;28;20996;-78
2023/03/15 09:36:01;;;;;;;4.20;3.17;;;;;;;;;;4951004;29;20417;-78
2023/03/15 09:38:28;;;;;;;7.43;4.78;;;;;;;;;;4945994;29;20449;-78
2023/03/15 09:40:59;;;;;;;4.65;2.40;;;;;;;;;;4950876;28;20406;-78
2023/03/15 09:43:43;;;;;;;6.70;3.90;;;;;;;;;;4951737;28;20081;-78
2023/03/15 09:46:22;;;;;;;3.42;2.47;;;;;;;;;;4962169;28;20047;-78
2023/03/15 09:48:56;;;;;;;6.78;4.47;;;;;;;;;;4949528;28;20054;-78
2023/03/15 09:51:31;;;;;;;8.85;3.20;;;;;;;;;;4950351;28;20048;-78
2023/03/15 09:54:04;;;;;;;5.47;4.18;;;;;;;;;;4944609;29;20044;-78
2023/03/15 09:56:35;;;;;;;6.38;3.45;;;;;;;;;;4963955;28;20055;-78
2023/03/15 09:59:10;;;;;;;6.05;3.17;;;;;;;;;;4947784;28;20413;-78
2023/03/15 10:01:39;;;;;;;5.80;2.58;;;;;;;;;;4950509;28;20050;-78
2023/03/15 10:04:13;;;;;;;9.23;3.95;;;;;;;;;;4949836;28;20055;-78
2023/03/15 10:06:44;;;;;;;4.10;3.60;;;;;;;;;;4947982;28;20136;-78
2023/03/15 10:09:14;;;;;;;5.60;3.15;;;;;;;;;;4932977;29;20055;-78
2023/03/15 10:11:47;;;;;;;6.35;2.90;;;;;;;;;;4965830;28;20048;-78
2023/03/15 10:14:24;;;;;;;8.98;4.95;;;;;;;;;;4953031;28;20047;-77
2023/03/15 10:16:51;;;;;;;5.13;4.25;;;;;;;;;;4948829;28;20055;-77
2023/03/15 10:19:30;;;;;;;4.35;2.55;;;;;;;;;;4945576;29;20059;-78
2023/03/15 10:22:00;;;;;;;6.38;3.58;;;;;;;;;;4953238;28;20050;-78
2023/03/15 10:24:36;;;;;;;5.20;3.55;;;;;;;;;;4932034;29;20056;-78
2023/03/15 10:27:13;;;;;;;4.47;3.75;;;;;;;;;;4949059;29;20055;-78
2023/03/15 10:29:44;;;;;;;4.88;3.13;;;;;;;;;;4946768;29;20058;-77
2023/03/15 10:32:17;;;;;;;9.05;4.57;;;;;;;;;;4935139;29;20051;-77
2023/03/15 10:34:49;;;;;;;6.82;3.60;;;;;;;;;;4951481;28;20055;-78
2023/03/15 10:37:16;;;;;;;5.60;4.30;;;;;;;;;;4952235;28;20054;-78
2023/03/15 10:39:46;;;;;;;6.72;3.15;;;;;;;;;;4949631;28;20425;-77
2023/03/15 10:42:27;;;;;;;3.95;3.28;;;;;;;;;;4952577;28;20057;-77
2023/03/15 10:44:56;;;;;;;4.03;2.60;;;;;;;;;;4934519;29;20051;-77
2023/03/15 10:47:24;;;;;;;3.38;2.38;;;;;;;;;;4961666;28;20059;-78
2023/03/15 10:49:57;;;;;;;6.53;3.03;;;;;;;;;;4949399;29;20444;-77
2023/03/15 10:52:40;;;;;;;9.15;4.15;;;;;;;;;;4951221;28;20047;-78
2023/03/15 10:55:11;;;;;;;7.78;5.35;;;;;;;;;;4953504;28;20414;-77
2023/03/15 10:57:42;;;;;;;;;;;;;;;;;;4964667;29;20070;-77
2023/03/15 11:00:28;;;;;;;5.15;3.30;;;;;;;;;;4959175;28;19930;-77
2023/03/15 11:03:03;;;;;;;5.57;2.55;;;;;;;;;;4962875;28;20058;-77
2023/03/15 11:05:31;;;;;;;4.07;1.85;;;;;;;;;;4954537;29;20058;-78
2023/03/15 11:08:00;;;;;;;3.47;2.67;;;;;;;;;;4955035;28;20401;-78
2023/03/15 11:10:35;;;;;;;5.57;2.47;;;;;;;;;;4955775;28;20046;-78
2023/03/15 11:13:10;;;;;;;3.63;2.92;;;;;;;;;;4938793;29;20058;-78
2023/03/15 11:15:50;;;;;;;4.97;3.20;;;;;;;;;;4950596;29;20071;-78
2023/03/15 11:18:19;;;;;;;7.90;2.92;;;;;;;;;;4950103;28;20047;-78
2023/03/15 11:20:48;;;;;;;3.78;2.28;;;;;;;;;;4927895;29;20075;-78
2023/03/15 11:23:19;;;;;;;4.60;2.90;;;;;;;;;;4951038;28;20078;-78
2023/03/15 11:25:47;;;;;;;4.32;3.00;;;;;;;;;;4939865;28;20047;-78
2023/03/15 11:28:18;;;;;;;4.55;2.65;;;;;;;;;;4956030;28;20409;-79
2023/03/15 11:30:47;;;;;;;3.75;3.28;;;;;;;;;;4954088;28;20055;-78
2023/03/15 11:33:25;;;;;;;3.35;1.80;;;;;;;;;;4965865;28;20051;-77
2023/03/15 11:35:52;;;;;;;5.25;2.35;;;;;;;;;;4970475;28;20035;-76
2023/03/15 11:38:27;;;;;;;5.75;2.17;;;;;;;;;;4968907;29;20725;-77
2023/03/15 11:40:55;;;;;;;6.13;2.78;;;;;;;;;;4966691;28;20051;-78
2023/03/15 11:43:28;;;;;;;4.22;2.58;;;;;;;;;;4954900;28;20050;-78
2023/03/15 11:45:59;;;;;;;6.85;2.38;;;;;;;;;;4952013;29;20047;-78
2023/03/15 11:48:46;;;;;;;4.43;2.25;;;;;;;;;;4948593;28;20039;-78
2023/03/15 11:51:16;;;;;;;2.88;2.58;;;;;;;;;;4934148;29;20055;-78
2023/03/15 11:53:45;;;;;;;3.90;2.22;;;;;;;;;;4951643;28;20042;-78
2023/03/15 11:56:24;;;;;;;2.88;2.13;;;;;;;;;;4954759;29;20054;-78
2023/03/15 11:59:07;;;;;;;6.93;3.35;;;;;;;;;;4946191;29;20047;-79
2023/03/15 12:01:36;;;;;;;3.33;2.97;;;;;;;;;;4956514;28;20059;-79
2023/03/15 12:04:29;;;;;;;3.65;3.08;;;;;;;;;;4952786;28;20306;-78
2023/03/15 12:06:57;;;;;;;9.25;2.70;;;;;;;;;;4953844;28;20051;-78
2023/03/15 12:09:48;;;;;;;4.93;2.60;;;;;;;;;;4954992;28;20054;-78
2023/03/15 12:12:37;;;;;;;6.57;3.67;;;;;;;;;;4947614;29;20430;-77
2023/03/15 12:15:27;;;;;;;14.45;3.05;;;;;;;;;;4952422;29;20051;-78
2023/03/15 12:17:56;;;;;;;3.10;2.80;;;;;;;;;;4936987;28;20051;-78
2023/03/15 12:20:30;;;;;;;3.33;2.78;;;;;;;;;;4950147;28;20062;-78
2023/03/15 12:23:14;;;;;;;2.35;2.15;;;;;;;;;;4966828;23;20059;-79
2023/03/15 12:25:46;;;;;;;3.00;2.70;;;;;;;;;;4949805;28;20055;-80
2023/03/15 12:28:20;;;;;;;2.40;2.20;;;;;;;;;;4951943;29;20051;-79
2023/03/15 12:30:53;;;;;;;5.18;2.38;;;;;;;;;;4937191;28;20054;-79
2023/03/15 12:33:23;;;;;;;5.53;3.13;;;;;;;;;;4959868;28;20051;-79
2023/03/15 12:35:50;;;;;;;3.00;2.55;;;;;;;;;;4953418;28;20051;-79
2023/03/15 12:38:20;;;;;;;2.80;2.25;;;;;;;;;;4951180;29;22148;-79
2023/03/15 12:40:52;;;;;;;2.58;2.35;;;;;;;;;;4957268;28;20055;-79
2023/03/15 12:43:37;;;;;;;2.28;1.70;;;;;;;;;;4951611;28;20055;-79
2023/03/15 12:46:05;;;;;;;3.40;2.38;;;;;;;;;;4960262;28;20051;-79
2023/03/15 12:48:33;;;;;;;6.15;3.05;;;;;;;;;;4953535;28;20050;-79
2023/03/15 12:51:05;;;;;;;5.25;2.72;;;;;;;;;;4952568;28;20408;-79
2023/03/15 12:53:51;;;;;;;3.28;2.10;;;;;;;;;;4954242;28;20042;-79
2023/03/15 12:56:39;;;;;;;6.53;3.25;;;;;;;;;;4937837;28;20062;-79
2023/03/15 12:59:14;;;;;;;4.13;3.35;;;;;;;;;;4948401;28;20055;-79
2023/03/15 13:01:42;;;;;;;4.90;3.75;;;;;;;;;;4954489;28;20417;-79
2023/03/15 13:04:13;;;;;;;5.35;3.97;;;;;;;;;;4951954;29;20058;-79
2023/03/15 13:06:51;;;;;;;3.95;3.20;;;;;;;;;;4955004;28;20494;-79
2023/03/15 13:09:43;;;;;;;5.72;3.90;;;;;;;;;;4954562;28;20051;-79
2023/03/15 13:12:15;;;;;;;7.63;4.40;;;;;;;;;;4960086;28;20047;-79
2023/03/15 13:14:48;;;;;;;5.90;3.88;;;;;;;;;;4952541;28;20055;-79
2023/03/15 13:17:28;;;;;;;7.07;4.80;;;;;;;;;;4955212;28;20498;-79
2023/03/15 13:20:12;;;;;;;5.20;4.13;;;;;;;;;;4957266;28;20058;-79
2023/03/15 13:22:48;;;;;;;4.10;3.70;;;;;;;;;;4954099;28;20046;-79
2023/03/15 13:25:20;;;;;;;5.75;4.50;;;;;;;;;;4952028;29;20062;-79
2023/03/15 13:27:52;;;;;;;4.60;3.53;;;;;;;;;;4945087;28;20039;-79
2023/03/15 13:30:32;;;;;;;3.90;3.33;;;;;;;;;;4950679;28;20066;-79
2023/03/15 13:33:05;;;;;;;5.68;4.07;;;;;;;;;;4959033;28;20706;-79
2023/03/15 13:35:33;;;;;;;5.05;3.42;;;;;;;;;;4965717;28;20062;-79
2023/03/15 13:38:08;;;;;;;4.18;3.70;;;;;;;;;;4966039;28;20051;-79
2023/03/15 13:40:47;;;;;;;5.28;4.50;;;;;;;;;;4932056;29;20064;-79
2023/03/15 13:43:17;;;;;;;8.25;4.38;;;;;;;;;;4954575;28;20070;-79
2023/03/15 13:45:48;;;;;;;3.95;3.42;;;;;;;;;;4951087;29;20062;-79
2023/03/15 13:48:17;;;;;;;6.55;4.13;;;;;;;;;;4939368;28;20050;-79
2023/03/15 13:50:53;;;;;;;4.75;3.88;;;;;;;;;;4954508;28;20051;-79
2023/03/15 13:53:25;;;;;;;7.85;3.63;;;;;;;;;;4955188;28;20105;-80
2023/03/15 13:55:58;;;;;;;4.30;3.80;;;;;;;;;;4953646;28;20410;-79
2023/03/15 13:58:25;;;;;;;4.72;4.25;;;;;;;;;;4967106;28;20058;-79
2023/03/15 14:01:01;;;;;;;4.78;3.80;;;;;;;;;;4965879;28;20050;-79
2023/03/15 14:03:28;;;;;;;4.80;3.90;;;;;;;;;;4958997;28;20058;-79
2023/03/15 14:05:58;;;;;;;4.20;3.80;;;;;;;;;;4955645;28;20336;-79
2023/03/15 14:08:30;;;;;;;4.93;3.80;;;;;;;;;;4953770;28;20062;-79
2023/03/15 14:11:03;;;;;;;4.43;3.78;;;;;;;;;;4947392;28;20059;-79
2023/03/15 14:13:34;;;;;;;4.13;3.70;;;;;;;;;;4949579;29;20421;-79
2023/03/15 14:16:04;;;;;;;6.53;3.85;;;;;;;;;;4925795;28;20051;-79
2023/03/15 14:18:34;;;;;;;5.78;3.20;;;;;;;;;;4949529;29;20058;-79
2023/03/15 14:21:06;;;;;;;2.75;2.42;;;;;;;;;;4965677;28;20051;-80
2023/03/15 14:23:36;;;;;;;3.30;3.00;;;;;;;;;;4955178;28;20055;-79
2023/03/15 14:26:11;;;;;;;4.80;3.28;;;;;;;;;;4967468;28;20043;-79
2023/03/15 14:28:41;;;;;;;3.00;2.60;;;;;;;;;;4951074;28;20059;-79
2023/03/15 14:31:08;;;;;;;4.70;3.42;;;;;;;;;;4934486;28;20051;-80
2023/03/15 14:33:52;;;;;;;5.90;3.05;;;;;;;;;;4955362;29;20062;-79
2023/03/15 14:36:25;;;;;;;5.22;3.08;;;;;;;;;;4955138;29;20055;-80
2023/03/15 14:38:54;;;;;;;4.13;2.75;;;;;;;;;;4952026;28;20412;-79
2023/03/15 14:41:25;;;;;;;2.92;2.65;;;;;;;;;;4953042;28;20502;-80
2023/03/15 14:43:55;;;;;;;3.90;2.58;;;;;;;;;;4955304;28;20405;-80
2023/03/15 14:46:22;;;;;;;3.90;2.80;;;;;;;;;;4969638;28;20047;-80
2023/03/15 14:48:55;;;;;;;4.55;3.10;;;;;;;;;;4954655;28;20047;-80
2023/03/15 14:51:24;;;;;;;2.60;2.40;;;;;;;;;;4954107;28;20540;-80
2023/03/15 14:53:57;;;;;;;3.53;2.60;;;;;;;;;;4957769;28;20051;-79
2023/03/15 14:56:25;;;;;;;2.90;2.60;;;;;;;;;;4959721;28;20055;-79
2023/03/15 14:58:54;;;;;;;6.03;3.35;;;;;;;;;;4954796;28;20043;-79
2023/03/15 15:01:26;;;;;;;3.10;2.47;;;;;;;;;;4956918;28;20051;-80
2023/03/15 15:04:00;;;;;;;3.10;2.42;;;;;;;;;;4953847;28;20043;-79
2023/03/15 15:06:35;;;;;;;4.47;2.90;;;;;;;;;;4954395;29;20058;-79
2023/03/15 15:09:04;;;;;;;2.90;2.40;;;;;;;;;;4953694;29;20568;-80
2023/03/15 15:11:40;;;;;;;2.40;2.20;;;;;;;;;;4939790;29;20534;-79
2023/03/15 15:14:15;;;;;;;2.83;2.42;;;;;;;;;;4951932;28;20059;-79
2023/03/15 15:16:42;;;;;;;2.90;2.20;;;;;;;;;;4954692;28;20059;-79